sensor_id;sensor_type;location;lat;lon;timestamp;P1;durP1;ratioP1;P2;durP2;ratioP2
17631;SDS011;8934;51.194;17.150;2022-12-10T00:02:31;103.35;;;33.88;;
17631;SDS011;8934;51.194;17.150;2022-12-10T00:05:19;102.70;;;34.92;;
17631;SDS011;8934;51.194;17.150;2022-12-10T00:08:07;116.18;;;38.65;;
17631;SDS011;8934;51.194;17.150;2022-12-10T00:10:55;102.22;;;36.70;;
17631;SDS011;8934;51.194;17.150;2022-12-10T00:13:43;115.45;;;37.50;;
17631;SDS011;8934;51.194;17.150;2022-12-10T00:16:31;110.68;;;33.42;;
17631;SDS011;8934;51.194;17.150;2022-12-10T00:19:19;99.82;;;35.00;;
17631;SDS011;8934;51.194;17.150;2022-12-10T00:22:07;95.30;;;33.13;;
17631;SDS011;8934;51.194;17.150;2022-12-10T00:24:56;95.40;;;32.83;;
17631;SDS011;8934;51.194;17.150;2022-12-10T00:27:43;100.28;;;35.70;;
17631;SDS011;8934;51.194;17.150;2022-12-10T00:30:30;102.15;;;32.83;;
17631;SDS011;8934;51.194;17.150;2022-12-10T00:33:20;97.85;;;33.47;;
17631;SDS011;8934;51.194;17.150;2022-12-10T00:36:08;95.95;;;33.25;;
17631;SDS011;8934;51.194;17.150;2022-12-10T00:38:58;104.85;;;34.72;;
17631;SDS011;8934;51.194;17.150;2022-12-10T00:41:47;97.90;;;33.15;;
17631;SDS011;8934;51.194;17.150;2022-12-10T00:44:35;103.03;;;33.60;;
17631;SDS011;8934;51.194;17.150;2022-12-10T00:47:23;97.95;;;32.83;;
17631;SDS011;8934;51.194;17.150;2022-12-10T00:50:11;95.65;;;34.45;;
17631;SDS011;8934;51.194;17.150;2022-12-10T00:52:58;95.38;;;32.38;;
17631;SDS011;8934;51.194;17.150;2022-12-10T00:55:46;99.82;;;33.35;;
17631;SDS011;8934;51.194;17.150;2022-12-10T00:58:35;89.88;;;30.80;;
17631;SDS011;8934;51.194;17.150;2022-12-10T01:01:25;106.55;;;35.03;;
17631;SDS011;8934;51.194;17.150;2022-12-10T01:04:15;107.55;;;34.45;;
17631;SDS011;8934;51.194;17.150;2022-12-10T01:07:04;97.57;;;36.00;;
17631;SDS011;8934;51.194;17.150;2022-12-10T01:09:56;90.63;;;32.25;;
17631;SDS011;8934;51.194;17.150;2022-12-10T01:12:43;97.00;;;31.75;;
17631;SDS011;8934;51.194;17.150;2022-12-10T01:15:33;104.32;;;35.15;;
17631;SDS011;8934;51.194;17.150;2022-12-10T01:18:24;105.63;;;37.75;;
17631;SDS011;8934;51.194;17.150;2022-12-10T01:21:13;101.15;;;35.95;;
17631;SDS011;8934;51.194;17.150;2022-12-10T01:24:02;95.03;;;32.42;;
17631;SDS011;8934;51.194;17.150;2022-12-10T01:26:51;103.05;;;33.88;;
17631;SDS011;8934;51.194;17.150;2022-12-10T01:29:40;108.68;;;33.08;;
17631;SDS011;8934;51.194;17.150;2022-12-10T01:32:29;87.93;;;31.90;;
17631;SDS011;8934;51.194;17.150;2022-12-10T01:35:18;94.18;;;32.45;;
17631;SDS011;8934;51.194;17.150;2022-12-10T01:38:06;96.10;;;30.80;;
17631;SDS011;8934;51.194;17.150;2022-12-10T01:40:54;105.13;;;33.90;;
17631;SDS011;8934;51.194;17.150;2022-12-10T01:43:49;94.88;;;31.35;;
17631;SDS011;8934;51.194;17.150;2022-12-10T01:46:39;102.38;;;32.72;;
17631;SDS011;8934;51.194;17.150;2022-12-10T01:49:32;105.15;;;32.33;;
17631;SDS011;8934;51.194;17.150;2022-12-10T01:52:22;89.72;;;30.23;;
17631;SDS011;8934;51.194;17.150;2022-12-10T01:58:25;92.20;;;33.67;;
17631;SDS011;8934;51.194;17.150;2022-12-10T02:01:14;100.22;;;31.55;;
17631;SDS011;8934;51.194;17.150;2022-12-10T02:04:11;102.05;;;33.42;;
17631;SDS011;8934;51.194;17.150;2022-12-10T02:07:13;87.90;;;31.33;;
17631;SDS011;8934;51.194;17.150;2022-12-10T02:10:04;83.68;;;29.45;;
17631;SDS011;8934;51.194;17.150;2022-12-10T02:13:02;96.03;;;32.30;;
17631;SDS011;8934;51.194;17.150;2022-12-10T02:15:56;96.80;;;31.35;;
17631;SDS011;8934;51.194;17.150;2022-12-10T02:18:48;86.95;;;31.02;;
17631;SDS011;8934;51.194;17.150;2022-12-10T02:21:39;87.95;;;30.90;;
17631;SDS011;8934;51.194;17.150;2022-12-10T02:24:33;90.00;;;30.65;;
17631;SDS011;8934;51.194;17.150;2022-12-10T02:27:26;84.57;;;31.70;;
17631;SDS011;8934;51.194;17.150;2022-12-10T02:30:22;99.25;;;34.83;;
17631;SDS011;8934;51.194;17.150;2022-12-10T02:33:10;94.57;;;33.10;;
17631;SDS011;8934;51.194;17.150;2022-12-10T02:36:00;84.13;;;30.85;;
17631;SDS011;8934;51.194;17.150;2022-12-10T02:38:49;94.90;;;31.60;;
17631;SDS011;8934;51.194;17.150;2022-12-10T02:41:41;93.95;;;30.77;;
17631;SDS011;8934;51.194;17.150;2022-12-10T02:44:32;88.50;;;30.73;;
17631;SDS011;8934;51.194;17.150;2022-12-10T02:47:25;102.55;;;30.58;;
17631;SDS011;8934;51.194;17.150;2022-12-10T02:50:14;98.20;;;34.05;;
17631;SDS011;8934;51.194;17.150;2022-12-10T02:53:07;103.55;;;33.60;;
17631;SDS011;8934;51.194;17.150;2022-12-10T02:56:01;87.20;;;31.67;;
17631;SDS011;8934;51.194;17.150;2022-12-10T02:59:05;84.93;;;32.33;;
17631;SDS011;8934;51.194;17.150;2022-12-10T03:02:05;99.82;;;32.28;;
17631;SDS011;8934;51.194;17.150;2022-12-10T03:04:59;98.20;;;33.30;;
17631;SDS011;8934;51.194;17.150;2022-12-10T03:07:51;82.43;;;29.20;;
17631;SDS011;8934;51.194;17.150;2022-12-10T03:10:45;90.47;;;30.15;;
17631;SDS011;8934;51.194;17.150;2022-12-10T03:13:41;95.20;;;30.38;;
17631;SDS011;8934;51.194;17.150;2022-12-10T03:16:35;103.50;;;30.70;;
17631;SDS011;8934;51.194;17.150;2022-12-10T03:19:26;81.47;;;31.75;;
17631;SDS011;8934;51.194;17.150;2022-12-10T03:22:19;92.18;;;32.05;;
17631;SDS011;8934;51.194;17.150;2022-12-10T03:25:07;92.18;;;30.30;;
17631;SDS011;8934;51.194;17.150;2022-12-10T03:27:58;79.80;;;30.27;;
17631;SDS011;8934;51.194;17.150;2022-12-10T03:30:47;102.53;;;32.83;;
17631;SDS011;8934;51.194;17.150;2022-12-10T03:33:37;82.40;;;29.02;;
17631;SDS011;8934;51.194;17.150;2022-12-10T03:36:24;80.35;;;28.80;;
17631;SDS011;8934;51.194;17.150;2022-12-10T03:39:17;81.13;;;28.15;;
17631;SDS011;8934;51.194;17.150;2022-12-10T03:42:05;73.35;;;27.60;;
17631;SDS011;8934;51.194;17.150;2022-12-10T03:44:53;76.15;;;30.30;;
17631;SDS011;8934;51.194;17.150;2022-12-10T03:47:40;71.10;;;28.42;;
17631;SDS011;8934;51.194;17.150;2022-12-10T03:50:28;81.18;;;29.42;;
17631;SDS011;8934;51.194;17.150;2022-12-10T03:53:16;73.32;;;27.10;;
17631;SDS011;8934;51.194;17.150;2022-12-10T03:56:08;67.28;;;26.35;;
17631;SDS011;8934;51.194;17.150;2022-12-10T03:58:56;72.10;;;25.48;;
17631;SDS011;8934;51.194;17.150;2022-12-10T04:01:44;80.68;;;29.02;;
17631;SDS011;8934;51.194;17.150;2022-12-10T04:04:32;73.70;;;26.27;;
17631;SDS011;8934;51.194;17.150;2022-12-10T04:07:20;71.55;;;28.13;;
17631;SDS011;8934;51.194;17.150;2022-12-10T04:10:07;68.72;;;26.92;;
17631;SDS011;8934;51.194;17.150;2022-12-10T04:12:57;65.60;;;25.65;;
17631;SDS011;8934;51.194;17.150;2022-12-10T04:16:02;65.37;;;23.93;;
17631;SDS011;8934;51.194;17.150;2022-12-10T04:19:08;67.93;;;24.63;;
17631;SDS011;8934;51.194;17.150;2022-12-10T04:21:58;65.28;;;26.40;;
17631;SDS011;8934;51.194;17.150;2022-12-10T04:25:03;66.10;;;24.80;;
17631;SDS011;8934;51.194;17.150;2022-12-10T04:28:10;61.78;;;24.98;;
17631;SDS011;8934;51.194;17.150;2022-12-10T04:30:57;70.13;;;26.63;;
17631;SDS011;8934;51.194;17.150;2022-12-10T04:33:45;56.75;;;23.50;;
17631;SDS011;8934;51.194;17.150;2022-12-10T04:36:32;61.53;;;24.60;;
17631;SDS011;8934;51.194;17.150;2022-12-10T04:39:20;65.18;;;27.05;;
17631;SDS011;8934;51.194;17.150;2022-12-10T04:42:08;60.35;;;24.15;;
17631;SDS011;8934;51.194;17.150;2022-12-10T04:44:57;64.97;;;23.90;;
17631;SDS011;8934;51.194;17.150;2022-12-10T04:47:45;59.60;;;23.77;;
17631;SDS011;8934;51.194;17.150;2022-12-10T04:50:32;61.60;;;24.42;;
17631;SDS011;8934;51.194;17.150;2022-12-10T04:53:20;63.63;;;23.48;;
17631;SDS011;8934;51.194;17.150;2022-12-10T04:56:08;51.60;;;21.77;;
17631;SDS011;8934;51.194;17.150;2022-12-10T04:58:55;58.78;;;23.65;;
17631;SDS011;8934;51.194;17.150;2022-12-10T05:01:45;64.97;;;23.83;;
17631;SDS011;8934;51.194;17.150;2022-12-10T05:04:34;59.85;;;23.25;;
17631;SDS011;8934;51.194;17.150;2022-12-10T05:07:21;63.33;;;23.75;;
17631;SDS011;8934;51.194;17.150;2022-12-10T05:10:09;56.90;;;24.35;;
17631;SDS011;8934;51.194;17.150;2022-12-10T05:12:56;62.58;;;23.40;;
17631;SDS011;8934;51.194;17.150;2022-12-10T05:15:44;57.95;;;23.80;;
17631;SDS011;8934;51.194;17.150;2022-12-10T05:18:33;59.22;;;22.85;;
17631;SDS011;8934;51.194;17.150;2022-12-10T05:21:22;60.92;;;23.83;;
17631;SDS011;8934;51.194;17.150;2022-12-10T05:24:31;66.18;;;22.88;;
17631;SDS011;8934;51.194;17.150;2022-12-10T05:27:17;64.80;;;23.80;;
17631;SDS011;8934;51.194;17.150;2022-12-10T05:30:05;60.83;;;22.38;;
17631;SDS011;8934;51.194;17.150;2022-12-10T05:32:55;61.25;;;22.83;;
17631;SDS011;8934;51.194;17.150;2022-12-10T05:35:44;60.97;;;24.42;;
17631;SDS011;8934;51.194;17.150;2022-12-10T05:38:39;68.22;;;27.77;;
17631;SDS011;8934;51.194;17.150;2022-12-10T05:41:28;57.20;;;23.98;;
17631;SDS011;8934;51.194;17.150;2022-12-10T05:44:16;58.45;;;24.23;;
17631;SDS011;8934;51.194;17.150;2022-12-10T05:47:04;59.00;;;24.92;;
17631;SDS011;8934;51.194;17.150;2022-12-10T05:49:51;62.50;;;23.85;;
17631;SDS011;8934;51.194;17.150;2022-12-10T05:52:41;69.93;;;25.90;;
17631;SDS011;8934;51.194;17.150;2022-12-10T05:55:29;58.70;;;24.00;;
17631;SDS011;8934;51.194;17.150;2022-12-10T05:58:18;60.92;;;23.77;;
17631;SDS011;8934;51.194;17.150;2022-12-10T06:01:06;59.47;;;23.67;;
17631;SDS011;8934;51.194;17.150;2022-12-10T06:03:57;69.20;;;25.98;;
17631;SDS011;8934;51.194;17.150;2022-12-10T06:06:45;60.83;;;25.63;;
17631;SDS011;8934;51.194;17.150;2022-12-10T06:09:35;64.63;;;24.55;;
17631;SDS011;8934;51.194;17.150;2022-12-10T06:12:22;62.08;;;23.77;;
17631;SDS011;8934;51.194;17.150;2022-12-10T06:15:10;68.00;;;25.88;;
17631;SDS011;8934;51.194;17.150;2022-12-10T06:17:57;82.40;;;30.58;;
17631;SDS011;8934;51.194;17.150;2022-12-10T06:20:46;71.57;;;27.95;;
17631;SDS011;8934;51.194;17.150;2022-12-10T06:23:33;68.60;;;27.30;;
17631;SDS011;8934;51.194;17.150;2022-12-10T06:26:23;63.20;;;26.80;;
17631;SDS011;8934;51.194;17.150;2022-12-10T06:29:15;67.45;;;24.45;;
17631;SDS011;8934;51.194;17.150;2022-12-10T06:32:03;72.85;;;28.13;;
17631;SDS011;8934;51.194;17.150;2022-12-10T06:34:51;73.25;;;27.40;;
17631;SDS011;8934;51.194;17.150;2022-12-10T06:37:38;74.00;;;26.60;;
17631;SDS011;8934;51.194;17.150;2022-12-10T06:40:26;60.85;;;24.58;;
17631;SDS011;8934;51.194;17.150;2022-12-10T06:43:15;66.57;;;25.58;;
17631;SDS011;8934;51.194;17.150;2022-12-10T06:46:04;68.18;;;26.33;;
17631;SDS011;8934;51.194;17.150;2022-12-10T06:48:52;70.28;;;26.20;;
17631;SDS011;8934;51.194;17.150;2022-12-10T06:51:40;60.22;;;25.45;;
17631;SDS011;8934;51.194;17.150;2022-12-10T06:54:27;58.85;;;23.70;;
17631;SDS011;8934;51.194;17.150;2022-12-10T06:57:15;62.58;;;24.48;;
17631;SDS011;8934;51.194;17.150;2022-12-10T07:00:04;55.63;;;24.58;;
17631;SDS011;8934;51.194;17.150;2022-12-10T07:02:53;56.95;;;22.05;;
17631;SDS011;8934;51.194;17.150;2022-12-10T07:05:40;63.10;;;23.95;;
17631;SDS011;8934;51.194;17.150;2022-12-10T07:08:28;57.00;;;22.88;;
17631;SDS011;8934;51.194;17.150;2022-12-10T07:11:16;64.28;;;25.58;;
17631;SDS011;8934;51.194;17.150;2022-12-10T07:14:05;55.90;;;24.85;;
17631;SDS011;8934;51.194;17.150;2022-12-10T07:16:54;61.25;;;25.27;;
17631;SDS011;8934;51.194;17.150;2022-12-10T07:19:42;62.58;;;24.70;;
17631;SDS011;8934;51.194;17.150;2022-12-10T07:22:30;61.05;;;26.85;;
17631;SDS011;8934;51.194;17.150;2022-12-10T07:25:17;64.47;;;27.30;;
17631;SDS011;8934;51.194;17.150;2022-12-10T07:28:05;60.30;;;24.48;;
17631;SDS011;8934;51.194;17.150;2022-12-10T07:30:59;54.70;;;24.05;;
17631;SDS011;8934;51.194;17.150;2022-12-10T07:33:49;64.25;;;23.35;;
17631;SDS011;8934;51.194;17.150;2022-12-10T07:36:37;55.70;;;23.27;;
17631;SDS011;8934;51.194;17.150;2022-12-10T07:39:25;57.55;;;23.45;;
17631;SDS011;8934;51.194;17.150;2022-12-10T07:42:12;57.30;;;23.45;;
17631;SDS011;8934;51.194;17.150;2022-12-10T07:45:00;58.25;;;24.50;;
17631;SDS011;8934;51.194;17.150;2022-12-10T07:47:49;56.55;;;25.10;;
17631;SDS011;8934;51.194;17.150;2022-12-10T07:50:38;55.75;;;23.83;;
17631;SDS011;8934;51.194;17.150;2022-12-10T07:53:25;61.17;;;24.55;;
17631;SDS011;8934;51.194;17.150;2022-12-10T07:56:13;53.30;;;22.50;;
17631;SDS011;8934;51.194;17.150;2022-12-10T07:59:00;60.80;;;24.20;;
17631;SDS011;8934;51.194;17.150;2022-12-10T08:01:48;54.05;;;23.35;;
17631;SDS011;8934;51.194;17.150;2022-12-10T08:04:35;65.63;;;27.33;;
17631;SDS011;8934;51.194;17.150;2022-12-10T08:07:25;58.55;;;25.40;;
17631;SDS011;8934;51.194;17.150;2022-12-10T08:10:14;60.85;;;24.38;;
17631;SDS011;8934;51.194;17.150;2022-12-10T08:13:02;60.85;;;25.88;;
17631;SDS011;8934;51.194;17.150;2022-12-10T08:15:50;55.83;;;24.45;;
17631;SDS011;8934;51.194;17.150;2022-12-10T08:18:38;63.97;;;24.92;;
17631;SDS011;8934;51.194;17.150;2022-12-10T08:21:27;57.92;;;24.58;;
17631;SDS011;8934;51.194;17.150;2022-12-10T08:24:17;56.67;;;23.40;;
17631;SDS011;8934;51.194;17.150;2022-12-10T08:27:05;57.92;;;24.40;;
17631;SDS011;8934;51.194;17.150;2022-12-10T08:29:53;59.22;;;24.70;;
17631;SDS011;8934;51.194;17.150;2022-12-10T08:32:41;61.88;;;26.27;;
17631;SDS011;8934;51.194;17.150;2022-12-10T08:35:28;67.70;;;28.27;;
17631;SDS011;8934;51.194;17.150;2022-12-10T08:38:15;72.40;;;27.20;;
17631;SDS011;8934;51.194;17.150;2022-12-10T08:41:08;61.60;;;26.17;;
17631;SDS011;8934;51.194;17.150;2022-12-10T08:43:57;58.20;;;24.92;;
17631;SDS011;8934;51.194;17.150;2022-12-10T08:46:44;52.28;;;24.05;;
17631;SDS011;8934;51.194;17.150;2022-12-10T08:49:32;52.78;;;23.52;;
17631;SDS011;8934;51.194;17.150;2022-12-10T08:52:19;56.55;;;23.80;;
17631;SDS011;8934;51.194;17.150;2022-12-10T08:55:07;58.70;;;23.15;;
17631;SDS011;8934;51.194;17.150;2022-12-10T08:57:56;52.65;;;23.98;;
17631;SDS011;8934;51.194;17.150;2022-12-10T09:00:44;59.80;;;25.40;;
17631;SDS011;8934;51.194;17.150;2022-12-10T09:03:32;51.20;;;23.73;;
17631;SDS011;8934;51.194;17.150;2022-12-10T09:06:20;53.53;;;22.20;;
17631;SDS011;8934;51.194;17.150;2022-12-10T09:09:09;54.00;;;24.63;;
17631;SDS011;8934;51.194;17.150;2022-12-10T09:11:57;63.35;;;25.85;;
17631;SDS011;8934;51.194;17.150;2022-12-10T09:14:46;68.30;;;27.98;;
17631;SDS011;8934;51.194;17.150;2022-12-10T09:17:34;72.95;;;29.60;;
17631;SDS011;8934;51.194;17.150;2022-12-10T09:20:22;58.22;;;26.20;;
17631;SDS011;8934;51.194;17.150;2022-12-10T09:23:10;70.75;;;28.10;;
17631;SDS011;8934;51.194;17.150;2022-12-10T09:25:57;64.30;;;25.65;;
17631;SDS011;8934;51.194;17.150;2022-12-10T09:28:45;67.85;;;27.08;;
17631;SDS011;8934;51.194;17.150;2022-12-10T09:31:35;61.53;;;26.83;;
17631;SDS011;8934;51.194;17.150;2022-12-10T09:34:23;64.80;;;26.88;;
17631;SDS011;8934;51.194;17.150;2022-12-10T09:37:11;66.65;;;27.55;;
17631;SDS011;8934;51.194;17.150;2022-12-10T09:39:58;61.40;;;27.13;;
17631;SDS011;8934;51.194;17.150;2022-12-10T09:42:47;60.15;;;24.73;;
17631;SDS011;8934;51.194;17.150;2022-12-10T09:45:44;60.00;;;27.10;;
17631;SDS011;8934;51.194;17.150;2022-12-10T09:48:45;62.72;;;25.75;;
17631;SDS011;8934;51.194;17.150;2022-12-10T09:51:40;64.97;;;28.27;;
17631;SDS011;8934;51.194;17.150;2022-12-10T09:54:29;53.28;;;24.30;;
17631;SDS011;8934;51.194;17.150;2022-12-10T09:57:21;65.78;;;24.85;;
17631;SDS011;8934;51.194;17.150;2022-12-10T10:00:21;61.28;;;26.73;;
17631;SDS011;8934;51.194;17.150;2022-12-10T10:03:11;59.33;;;24.08;;
17631;SDS011;8934;51.194;17.150;2022-12-10T10:06:02;49.83;;;23.52;;
17631;SDS011;8934;51.194;17.150;2022-12-10T10:08:56;56.85;;;23.85;;
17631;SDS011;8934;51.194;17.150;2022-12-10T10:11:46;50.05;;;21.92;;
17631;SDS011;8934;51.194;17.150;2022-12-10T10:14:35;46.45;;;22.58;;
17631;SDS011;8934;51.194;17.150;2022-12-10T10:17:23;55.42;;;23.17;;
17631;SDS011;8934;51.194;17.150;2022-12-10T10:20:18;57.00;;;25.52;;
17631;SDS011;8934;51.194;17.150;2022-12-10T10:23:07;52.88;;;24.48;;
17631;SDS011;8934;51.194;17.150;2022-12-10T10:25:59;53.10;;;23.02;;
17631;SDS011;8934;51.194;17.150;2022-12-10T10:28:47;51.85;;;21.80;;
17631;SDS011;8934;51.194;17.150;2022-12-10T10:31:39;64.38;;;24.52;;
17631;SDS011;8934;51.194;17.150;2022-12-10T10:34:27;65.70;;;25.23;;
17631;SDS011;8934;51.194;17.150;2022-12-10T10:37:16;59.88;;;26.70;;
17631;SDS011;8934;51.194;17.150;2022-12-10T10:40:12;51.95;;;24.45;;
17631;SDS011;8934;51.194;17.150;2022-12-10T10:43:12;57.53;;;27.35;;
17631;SDS011;8934;51.194;17.150;2022-12-10T10:46:06;71.60;;;29.05;;
17631;SDS011;8934;51.194;17.150;2022-12-10T10:49:11;51.42;;;21.83;;
17631;SDS011;8934;51.194;17.150;2022-12-10T10:52:05;51.90;;;23.75;;
17631;SDS011;8934;51.194;17.150;2022-12-10T10:55:00;50.45;;;22.70;;
17631;SDS011;8934;51.194;17.150;2022-12-10T10:57:49;47.33;;;21.38;;
17631;SDS011;8934;51.194;17.150;2022-12-10T11:00:38;48.83;;;23.02;;
17631;SDS011;8934;51.194;17.150;2022-12-10T11:03:27;45.60;;;22.15;;
17631;SDS011;8934;51.194;17.150;2022-12-10T11:06:15;53.83;;;24.17;;
17631;SDS011;8934;51.194;17.150;2022-12-10T11:09:04;48.40;;;23.38;;
17631;SDS011;8934;51.194;17.150;2022-12-10T11:11:57;59.00;;;24.60;;
17631;SDS011;8934;51.194;17.150;2022-12-10T11:14:47;52.03;;;24.80;;
17631;SDS011;8934;51.194;17.150;2022-12-10T11:17:35;53.25;;;23.77;;
17631;SDS011;8934;51.194;17.150;2022-12-10T11:20:34;49.25;;;22.60;;
17631;SDS011;8934;51.194;17.150;2022-12-10T11:23:27;49.25;;;23.30;;
17631;SDS011;8934;51.194;17.150;2022-12-10T11:26:31;52.28;;;22.33;;
17631;SDS011;8934;51.194;17.150;2022-12-10T11:29:45;55.60;;;24.48;;
17631;SDS011;8934;51.194;17.150;2022-12-10T11:32:44;56.20;;;23.90;;
17631;SDS011;8934;51.194;17.150;2022-12-10T11:35:44;57.92;;;23.77;;
17631;SDS011;8934;51.194;17.150;2022-12-10T11:38:41;47.83;;;22.85;;
17631;SDS011;8934;51.194;17.150;2022-12-10T11:44:30;50.85;;;22.55;;
17631;SDS011;8934;51.194;17.150;2022-12-10T11:47:33;51.22;;;24.27;;
17631;SDS011;8934;51.194;17.150;2022-12-10T11:50:32;48.38;;;23.90;;
17631;SDS011;8934;51.194;17.150;2022-12-10T11:53:29;54.88;;;25.25;;
17631;SDS011;8934;51.194;17.150;2022-12-10T11:56:30;56.38;;;26.63;;
17631;SDS011;8934;51.194;17.150;2022-12-10T11:59:23;57.05;;;26.30;;
17631;SDS011;8934;51.194;17.150;2022-12-10T12:02:41;83.50;;;33.88;;
17631;SDS011;8934;51.194;17.150;2022-12-10T12:05:48;67.95;;;30.52;;
17631;SDS011;8934;51.194;17.150;2022-12-10T12:08:51;63.55;;;28.60;;
17631;SDS011;8934;51.194;17.150;2022-12-10T12:11:49;61.00;;;26.05;;
17631;SDS011;8934;51.194;17.150;2022-12-10T12:14:48;54.80;;;25.50;;
17631;SDS011;8934;51.194;17.150;2022-12-10T12:17:43;59.92;;;26.83;;
17631;SDS011;8934;51.194;17.150;2022-12-10T12:20:37;56.85;;;25.70;;
17631;SDS011;8934;51.194;17.150;2022-12-10T12:23:28;56.70;;;24.67;;
17631;SDS011;8934;51.194;17.150;2022-12-10T12:26:21;58.08;;;25.30;;
17631;SDS011;8934;51.194;17.150;2022-12-10T12:29:15;58.80;;;26.17;;
17631;SDS011;8934;51.194;17.150;2022-12-10T12:32:09;62.55;;;25.35;;
17631;SDS011;8934;51.194;17.150;2022-12-10T12:35:04;51.40;;;24.27;;
17631;SDS011;8934;51.194;17.150;2022-12-10T12:37:58;54.60;;;24.13;;
17631;SDS011;8934;51.194;17.150;2022-12-10T12:40:51;57.22;;;23.92;;
17631;SDS011;8934;51.194;17.150;2022-12-10T12:43:46;62.55;;;26.30;;
17631;SDS011;8934;51.194;17.150;2022-12-10T12:46:39;56.45;;;24.80;;
17631;SDS011;8934;51.194;17.150;2022-12-10T12:49:30;60.20;;;25.02;;
17631;SDS011;8934;51.194;17.150;2022-12-10T12:52:26;57.80;;;26.67;;
17631;SDS011;8934;51.194;17.150;2022-12-10T12:55:26;53.30;;;24.60;;
17631;SDS011;8934;51.194;17.150;2022-12-10T12:58:27;64.18;;;27.67;;
17631;SDS011;8934;51.194;17.150;2022-12-10T13:01:23;61.13;;;25.60;;
17631;SDS011;8934;51.194;17.150;2022-12-10T13:04:17;60.55;;;24.17;;
17631;SDS011;8934;51.194;17.150;2022-12-10T13:07:09;58.63;;;25.65;;
17631;SDS011;8934;51.194;17.150;2022-12-10T13:10:25;59.53;;;26.92;;
17631;SDS011;8934;51.194;17.150;2022-12-10T13:13:23;60.45;;;25.10;;
17631;SDS011;8934;51.194;17.150;2022-12-10T13:16:34;55.13;;;24.40;;
17631;SDS011;8934;51.194;17.150;2022-12-10T13:19:26;58.70;;;24.67;;
17631;SDS011;8934;51.194;17.150;2022-12-10T13:25:55;56.50;;;23.83;;
17631;SDS011;8934;51.194;17.150;2022-12-10T13:28:48;53.35;;;23.70;;
17631;SDS011;8934;51.194;17.150;2022-12-10T13:31:37;54.75;;;23.58;;
17631;SDS011;8934;51.194;17.150;2022-12-10T13:34:30;59.38;;;25.23;;
17631;SDS011;8934;51.194;17.150;2022-12-10T13:37:29;52.95;;;24.27;;
17631;SDS011;8934;51.194;17.150;2022-12-10T13:40:25;55.55;;;23.25;;
17631;SDS011;8934;51.194;17.150;2022-12-10T13:43:38;51.95;;;22.65;;
17631;SDS011;8934;51.194;17.150;2022-12-10T13:46:54;52.75;;;23.17;;
17631;SDS011;8934;51.194;17.150;2022-12-10T13:49:46;58.65;;;24.08;;
17631;SDS011;8934;51.194;17.150;2022-12-10T13:52:40;54.65;;;24.05;;
17631;SDS011;8934;51.194;17.150;2022-12-10T13:55:40;53.45;;;22.75;;
17631;SDS011;8934;51.194;17.150;2022-12-10T13:58:39;58.53;;;24.63;;
17631;SDS011;8934;51.194;17.150;2022-12-10T14:01:34;62.40;;;26.88;;
17631;SDS011;8934;51.194;17.150;2022-12-10T14:04:39;61.30;;;26.08;;
17631;SDS011;8934;51.194;17.150;2022-12-10T14:07:42;61.38;;;26.20;;
17631;SDS011;8934;51.194;17.150;2022-12-10T14:10:33;60.60;;;25.60;;
17631;SDS011;8934;51.194;17.150;2022-12-10T14:13:24;61.13;;;25.23;;
17631;SDS011;8934;51.194;17.150;2022-12-10T14:16:20;69.57;;;28.08;;
17631;SDS011;8934;51.194;17.150;2022-12-10T14:19:11;58.83;;;26.50;;
17631;SDS011;8934;51.194;17.150;2022-12-10T14:22:04;75.45;;;28.67;;
17631;SDS011;8934;51.194;17.150;2022-12-10T14:24:52;65.95;;;26.83;;
17631;SDS011;8934;51.194;17.150;2022-12-10T14:27:46;70.53;;;28.83;;
17631;SDS011;8934;51.194;17.150;2022-12-10T14:30:35;72.93;;;28.63;;
17631;SDS011;8934;51.194;17.150;2022-12-10T14:33:31;66.63;;;27.38;;
17631;SDS011;8934;51.194;17.150;2022-12-10T14:36:22;70.45;;;28.95;;
17631;SDS011;8934;51.194;17.150;2022-12-10T14:39:14;73.18;;;29.63;;
17631;SDS011;8934;51.194;17.150;2022-12-10T14:42:03;68.05;;;27.73;;
17631;SDS011;8934;51.194;17.150;2022-12-10T14:44:54;78.03;;;29.60;;
17631;SDS011;8934;51.194;17.150;2022-12-10T14:47:45;69.90;;;28.70;;
17631;SDS011;8934;51.194;17.150;2022-12-10T14:50:36;88.13;;;33.17;;
17631;SDS011;8934;51.194;17.150;2022-12-10T14:53:26;79.00;;;29.27;;
17631;SDS011;8934;51.194;17.150;2022-12-10T14:56:18;80.45;;;33.55;;
17631;SDS011;8934;51.194;17.150;2022-12-10T14:59:13;76.57;;;29.90;;
17631;SDS011;8934;51.194;17.150;2022-12-10T15:02:10;76.65;;;29.55;;
17631;SDS011;8934;51.194;17.150;2022-12-10T15:05:02;73.72;;;29.10;;
17631;SDS011;8934;51.194;17.150;2022-12-10T15:07:52;79.95;;;29.90;;
17631;SDS011;8934;51.194;17.150;2022-12-10T15:10:43;70.28;;;28.17;;
17631;SDS011;8934;51.194;17.150;2022-12-10T15:13:33;62.85;;;26.17;;
17631;SDS011;8934;51.194;17.150;2022-12-10T15:16:29;74.70;;;29.15;;
17631;SDS011;8934;51.194;17.150;2022-12-10T15:19:19;71.13;;;26.08;;
17631;SDS011;8934;51.194;17.150;2022-12-10T15:22:15;74.78;;;29.77;;
17631;SDS011;8934;51.194;17.150;2022-12-10T15:25:14;76.00;;;27.55;;
17631;SDS011;8934;51.194;17.150;2022-12-10T15:28:20;76.40;;;29.08;;
17631;SDS011;8934;51.194;17.150;2022-12-10T15:31:15;70.60;;;30.67;;
17631;SDS011;8934;51.194;17.150;2022-12-10T15:34:08;76.05;;;26.90;;
17631;SDS011;8934;51.194;17.150;2022-12-10T15:37:00;74.82;;;27.42;;
17631;SDS011;8934;51.194;17.150;2022-12-10T15:39:51;66.85;;;27.63;;
17631;SDS011;8934;51.194;17.150;2022-12-10T15:42:43;77.45;;;28.23;;
17631;SDS011;8934;51.194;17.150;2022-12-10T15:45:37;73.63;;;27.00;;
17631;SDS011;8934;51.194;17.150;2022-12-10T15:48:27;71.18;;;27.63;;
17631;SDS011;8934;51.194;17.150;2022-12-10T15:51:16;69.90;;;28.35;;
17631;SDS011;8934;51.194;17.150;2022-12-10T15:54:12;78.38;;;29.00;;
17631;SDS011;8934;51.194;17.150;2022-12-10T15:57:10;73.00;;;27.05;;
17631;SDS011;8934;51.194;17.150;2022-12-10T16:00:03;72.65;;;28.02;;
17631;SDS011;8934;51.194;17.150;2022-12-10T16:02:57;73.35;;;27.90;;
17631;SDS011;8934;51.194;17.150;2022-12-10T16:06:18;63.55;;;27.02;;
17631;SDS011;8934;51.194;17.150;2022-12-10T16:09:06;64.97;;;25.67;;
17631;SDS011;8934;51.194;17.150;2022-12-10T16:11:54;86.32;;;33.15;;
17631;SDS011;8934;51.194;17.150;2022-12-10T16:14:42;74.15;;;27.63;;
17631;SDS011;8934;51.194;17.150;2022-12-10T16:17:36;66.40;;;26.30;;
17631;SDS011;8934;51.194;17.150;2022-12-10T16:20:24;77.03;;;31.27;;
17631;SDS011;8934;51.194;17.150;2022-12-10T16:23:14;90.68;;;32.42;;
17631;SDS011;8934;51.194;17.150;2022-12-10T16:26:02;72.25;;;29.85;;
17631;SDS011;8934;51.194;17.150;2022-12-10T16:28:58;76.47;;;29.05;;
17631;SDS011;8934;51.194;17.150;2022-12-10T16:31:46;87.68;;;31.20;;
17631;SDS011;8934;51.194;17.150;2022-12-10T16:34:36;72.22;;;28.67;;
17631;SDS011;8934;51.194;17.150;2022-12-10T16:37:23;79.55;;;32.40;;
17631;SDS011;8934;51.194;17.150;2022-12-10T16:40:11;67.95;;;26.83;;
17631;SDS011;8934;51.194;17.150;2022-12-10T16:43:00;76.43;;;27.48;;
17631;SDS011;8934;51.194;17.150;2022-12-10T16:45:48;72.90;;;27.48;;
17631;SDS011;8934;51.194;17.150;2022-12-10T16:48:36;64.32;;;26.20;;
17631;SDS011;8934;51.194;17.150;2022-12-10T16:51:27;70.88;;;26.52;;
17631;SDS011;8934;51.194;17.150;2022-12-10T16:54:16;59.63;;;25.67;;